createdAt,value
2022-12-23T05:02:00.986Z,21.40
2022-12-23T05:06:04.253Z,28.13
2022-12-23T05:10:07.788Z,8.90
2022-12-23T05:14:10.601Z,6.20
2022-12-23T05:18:17.553Z,7.55
2022-12-23T05:22:20.070Z,6.05
2022-12-23T05:26:22.626Z,7.60
2022-12-23T05:30:25.213Z,5.73
2022-12-23T05:34:29.348Z,11.73
2022-12-23T05:38:32.328Z,7.40
2022-12-23T05:42:34.806Z,10.57
2022-12-23T05:46:37.685Z,9.63
2022-12-23T05:50:42.058Z,8.27
2022-12-23T05:54:44.705Z,8.77
2022-12-23T05:58:47.236Z,8.53
2022-12-23T06:02:53.993Z,9.45
2022-12-23T06:06:58.327Z,7.43
2022-12-23T06:11:00.818Z,8.93
2022-12-23T06:15:04.201Z,17.70
2022-12-23T06:19:06.911Z,10.15
2022-12-23T06:23:10.718Z,6.30
2022-12-23T06:27:13.269Z,7.47
2022-12-23T06:31:16.133Z,6.97
2022-12-23T06:35:18.882Z,4.40
2022-12-23T06:39:22.708Z,2.77
2022-12-23T06:43:25.275Z,4.57
2022-12-23T06:47:27.819Z,3.40
2022-12-23T06:51:30.435Z,3.88
2022-12-23T06:55:34.399Z,3.70
2022-12-23T06:59:36.892Z,2.60
2022-12-23T07:03:39.867Z,5.13
2022-12-23T07:07:42.414Z,3.80
2022-12-23T07:11:46.248Z,4.18
2022-12-23T07:15:48.735Z,6.72
2022-12-23T07:19:51.215Z,3.75
2022-12-23T07:23:53.758Z,5.32
2022-12-23T07:27:57.793Z,4.68
2022-12-23T07:32:02.561Z,4.72
2022-12-23T07:36:05.754Z,3.50
2022-12-23T07:40:09.412Z,5.88
2022-12-23T07:44:13.577Z,3.75
2022-12-23T07:48:16.901Z,5.85
2022-12-23T07:52:19.752Z,3.63
2022-12-23T07:56:22.475Z,4.70
2022-12-23T08:00:26.391Z,3.87
2022-12-23T08:04:28.960Z,4.88
2022-12-23T08:08:32.140Z,5.07
2022-12-23T08:12:35.136Z,2.97
2022-12-23T08:16:43.583Z,4.30
2022-12-23T08:20:54.806Z,3.90
2022-12-23T08:24:57.318Z,3.45
2022-12-23T08:29:00.979Z,2.55
2022-12-23T08:33:05.002Z,3.45
2022-12-23T08:37:07.880Z,5.82
2022-12-23T08:41:11.173Z,4.55
2022-12-23T08:45:13.755Z,3.35
2022-12-23T08:49:17.651Z,4.47
2022-12-23T08:53:20.211Z,4.88
2022-12-23T08:57:22.749Z,4.00
2022-12-23T09:01:27.208Z,4.38
2022-12-23T09:05:31.667Z,4.45
2022-12-23T09:09:34.216Z,4.03
2022-12-23T09:13:36.895Z,6.43
2022-12-23T09:17:39.467Z,6.07
2022-12-23T09:21:43.344Z,7.10
2022-12-23T09:25:45.892Z,6.13
2022-12-23T09:29:48.391Z,3.60
2022-12-23T09:33:52.774Z,2.27
2022-12-23T09:37:57.251Z,2.08
2022-12-23T09:42:07.280Z,1.15
2022-12-23T09:46:17.555Z,1.50
2022-12-23T09:50:25.192Z,1.63
2022-12-23T09:54:34.315Z,1.45
2022-12-23T09:58:44.850Z,1.83
2022-12-23T10:03:03.909Z,2.25
2022-12-23T10:07:22.791Z,12.88
2022-12-23T10:11:30.716Z,12.18
2022-12-23T10:15:39.666Z,9.85
2022-12-23T10:19:44.939Z,34.42
2022-12-23T10:23:52.370Z,7.32
2022-12-23T10:27:56.678Z,7.78
2022-12-23T10:32:15.640Z,5.75
2022-12-23T10:36:24.406Z,10.05
2022-12-23T10:40:30.933Z,11.10
2022-12-23T10:45:01.541Z,14.98
2022-12-23T10:49:14.048Z,22.88
2022-12-23T10:53:28.370Z,17.00
2022-12-23T10:57:31.194Z,31.85
2022-12-23T11:01:35.447Z,181.43
2022-12-23T11:05:39.465Z,350.10
2022-12-23T11:09:44.983Z,46.90
2022-12-23T11:13:47.593Z,19.63
2022-12-23T11:17:59.629Z,57.70
2022-12-23T11:22:03.298Z,109.47
2022-12-23T11:26:08.631Z,61.50
2022-12-23T11:30:19.605Z,22.92
2022-12-23T11:34:27.088Z,61.28
2022-12-23T11:38:30.220Z,56.92
2022-12-23T11:42:35.429Z,85.18
2022-12-23T11:46:38.072Z,45.25
2022-12-23T11:50:42.022Z,30.20
2022-12-23T11:54:54.606Z,10.70
2022-12-23T11:59:03.678Z,10.97
2022-12-23T12:03:08.034Z,13.55
2022-12-23T12:07:15.430Z,10.20
2022-12-23T12:11:19.879Z,18.65
2022-12-23T12:15:30.299Z,8.75
2022-12-23T12:19:36.666Z,8.32
2022-12-23T12:23:47.586Z,111.47
2022-12-23T12:27:58.110Z,171.43
2022-12-23T12:32:02.493Z,22.88
2022-12-23T12:36:13.547Z,22.73
2022-12-23T12:40:27.117Z,18.13
2022-12-23T12:44:35.375Z,26.38
2022-12-23T12:48:46.904Z,100.47
2022-12-23T12:52:53.613Z,119.75
2022-12-23T12:56:58.363Z,16.15
2022-12-23T13:01:18.378Z,49.35
2022-12-23T13:05:33.358Z,16.95
2022-12-23T13:09:48.159Z,12.90
2022-12-23T13:13:59.986Z,15.88
2022-12-23T13:18:17.659Z,12.85
2022-12-23T13:22:28.741Z,3.67
2022-12-23T13:26:39.395Z,23.48
2022-12-23T13:30:48.728Z,6.00
2022-12-23T13:35:02.281Z,15.32
2022-12-23T13:39:19.018Z,21.13
2022-12-23T13:43:26.083Z,21.52
2022-12-23T13:47:43.668Z,17.42
2022-12-23T13:51:54.213Z,13.20
2022-12-23T13:56:10.013Z,14.52
2022-12-23T14:01:10.268Z,10.30
2022-12-23T14:05:36.357Z,14.85
2022-12-23T14:09:40.737Z,19.27
2022-12-23T14:13:46.915Z,18.58
2022-12-23T14:18:04.772Z,16.65
2022-12-23T14:22:29.084Z,17.00
2022-12-23T14:26:47.600Z,18.75
2022-12-23T14:30:59.522Z,210.73
2022-12-23T14:36:04.621Z,206.57
2022-12-23T14:40:44.689Z,128.07
2022-12-23T14:44:51.573Z,218.80
2022-12-23T14:49:38.134Z,90.72
2022-12-23T14:53:58.483Z,122.80
2022-12-23T14:58:09.911Z,150.70
2022-12-23T15:02:19.755Z,58.10
2022-12-23T15:06:30.291Z,85.93
2022-12-23T15:10:33.967Z,45.22
2022-12-23T15:14:43.925Z,50.15
2022-12-23T15:18:54.421Z,14.38
2022-12-23T15:23:01.540Z,14.05
2022-12-23T15:31:36.728Z,50.22
2022-12-23T15:35:40.813Z,157.38
2022-12-23T15:39:46.881Z,7.70
2022-12-23T15:43:49.685Z,45.83
2022-12-23T15:47:53.499Z,9.27
2022-12-23T15:52:08.088Z,16.30
2022-12-23T15:56:22.234Z,7.25
2022-12-23T16:00:28.035Z,7.55
2022-12-23T16:04:32.026Z,8.73
2022-12-23T16:08:35.689Z,10.50
2022-12-23T16:12:39.672Z,6.68
2022-12-23T16:16:43.455Z,6.90
2022-12-23T16:20:50.182Z,6.95
2022-12-23T16:24:59.602Z,9.20
2022-12-23T16:29:02.358Z,8.75
2022-12-23T16:33:07.221Z,8.20
2022-12-23T16:37:11.020Z,8.25
2022-12-23T16:41:13.579Z,8.50
2022-12-23T16:45:16.159Z,10.18
2022-12-23T16:49:20.859Z,10.07
2022-12-23T16:53:24.734Z,8.93
2022-12-23T16:57:27.342Z,9.90
2022-12-23T17:01:33.576Z,10.20
2022-12-23T17:05:36.325Z,8.38
2022-12-23T17:09:40.948Z,8.50
2022-12-23T17:13:44.994Z,7.68
2022-12-23T17:17:48.880Z,6.10
2022-12-23T17:21:56.793Z,6.55
2022-12-23T17:26:00.724Z,5.78
2022-12-23T17:30:03.243Z,5.32
2022-12-23T17:34:11.526Z,5.20
2022-12-23T17:38:15.911Z,6.70
2022-12-23T17:42:25.790Z,7.18
2022-12-23T17:46:30.072Z,5.70
2022-12-23T17:50:35.303Z,7.55
2022-12-23T17:54:37.854Z,9.25
2022-12-23T17:58:41.871Z,13.13
2022-12-23T18:02:45.360Z,16.75
2022-12-23T18:10:50.618Z,5.35
2022-12-23T18:14:54.605Z,7.63
2022-12-23T18:18:57.568Z,5.63
2022-12-23T18:23:01.599Z,7.68
2022-12-23T18:27:09.950Z,8.90
2022-12-23T18:31:17.247Z,7.88
2022-12-23T18:35:26.959Z,8.50
2022-12-23T18:39:29.514Z,9.52
2022-12-23T18:43:32.168Z,11.35
2022-12-23T18:47:36.029Z,9.67
2022-12-23T18:51:39.680Z,6.07
2022-12-23T18:55:42.156Z,3.17
2022-12-23T18:59:44.663Z,6.50
2022-12-23T19:03:48.653Z,5.28
2022-12-23T19:07:52.074Z,5.80
2022-12-23T19:11:55.307Z,3.40
2022-12-23T19:15:57.856Z,5.80
2022-12-23T19:20:01.851Z,4.17
2022-12-23T19:24:04.842Z,3.92
2022-12-23T19:28:07.606Z,5.28
2022-12-23T19:32:10.299Z,6.23
2022-12-23T19:36:15.922Z,6.43
2022-12-23T19:40:18.839Z,5.70
2022-12-23T19:44:21.607Z,5.03
2022-12-23T19:48:24.400Z,4.30
2022-12-23T19:52:28.263Z,4.30
2022-12-23T19:56:32.372Z,4.43
2022-12-23T20:00:34.889Z,4.88
2022-12-23T20:04:37.728Z,5.82
2022-12-23T20:08:43.517Z,5.47
2022-12-23T20:12:46.224Z,4.28
2022-12-23T20:16:49.325Z,6.47
2022-12-23T20:20:51.845Z,4.30
2022-12-23T20:24:55.714Z,6.63
2022-12-23T20:28:58.719Z,5.45
2022-12-23T20:33:01.301Z,4.15
2022-12-23T20:37:04.659Z,4.13
2022-12-23T20:41:09.235Z,6.30
2022-12-23T20:45:13.406Z,6.40
2022-12-23T20:49:15.915Z,6.97
2022-12-23T20:53:18.418Z,5.75
2022-12-23T20:57:22.311Z,6.88
2022-12-23T21:01:27.112Z,5.10
2022-12-23T21:05:29.723Z,5.30
2022-12-23T21:09:32.431Z,7.28
2022-12-23T21:13:36.971Z,5.30
2022-12-23T21:17:39.543Z,4.45
2022-12-23T21:21:42.061Z,6.90
2022-12-23T21:25:44.618Z,2.83
2022-12-23T21:29:48.638Z,4.43
2022-12-23T21:33:52.936Z,2.72
2022-12-23T21:37:55.486Z,7.00
2022-12-23T21:41:58.043Z,3.80
2022-12-23T21:46:03.681Z,4.10
2022-12-23T21:50:07.611Z,5.15
2022-12-23T21:54:11.513Z,5.18
2022-12-23T21:58:14.098Z,4.47
